Time;durP1;ratioP1;P1;durP2;ratioP2;P2;SDS_P1;SDS_P2;PMS_P1;PMS_P2;Temp;Humidity;BMP_temperature;BMP_pressure;BME280_temperature;BME280_humidity;BME280_pressure;Samples;Min_cycle;Max_cycle;Signal;HPM_P1;HPM_P2
2022/04/24 00:02:23;;;;;;;;;;;8.60;79.70;;;;;;6102834;23;19913;-78
2022/04/24 00:04:52;;;;;;;;;;;8.50;80.00;;;;;;6102482;23;19913;-78
2022/04/24 00:07:19;;;;;;;;;;;8.60;80.20;;;;;;6102170;23;19913;-78
2022/04/24 00:09:47;;;;;;;;;;;8.40;80.20;;;;;;6126719;23;19917;-78
2022/04/24 00:12:15;;;;;;;;;;;8.30;80.20;;;;;;6126508;23;20320;-78
2022/04/24 00:14:45;;;;;;;;;;;8.40;80.40;;;;;;6101970;23;19912;-78
2022/04/24 00:17:15;;;;;;;;;;;8.30;80.10;;;;;;6101661;23;19921;-78
2022/04/24 00:19:44;;;;;;;;;;;8.30;80.00;;;;;;6102151;23;19920;-78
2022/04/24 00:22:12;;;;;;;;;;;8.30;80.00;;;;;;6102165;23;20320;-78
2022/04/24 00:24:38;;;;;;;;;;;8.30;79.90;;;;;;6097705;23;19912;-78
2022/04/24 00:27:04;;;;;;;;;;;8.20;79.90;;;;;;6126579;23;19951;-78
2022/04/24 00:29:36;;;;;;;;;;;8.20;79.70;;;;;;6102052;23;19913;-78
2022/04/24 00:32:04;;;;;;;;;;;8.10;79.60;;;;;;6126828;23;19913;-78
2022/04/24 00:34:30;;;;;;;;;;;8.10;79.70;;;;;;6150295;23;19952;-78
2022/04/24 00:36:56;;;;;;;;;;;8.10;79.90;;;;;;6101870;23;19956;-78
2022/04/24 00:39:24;;;;;;;;;;;8.10;79.80;;;;;;6102919;23;19920;-78
2022/04/24 00:41:57;;;;;;;;;;;8.20;79.70;;;;;;6102105;23;19912;-78
2022/04/24 00:44:23;;;;;;;;;;;8.00;79.60;;;;;;6126142;23;19917;-78
2022/04/24 00:46:55;;;;;;;;;;;8.10;79.50;;;;;;6101892;23;19964;-78
2022/04/24 00:49:42;;;;;;;;;;;;;;;;;;;;;
2022/04/24 00:52:13;;;;;;;;;;;8.10;79.10;;;;;;6122604;23;19913;-80
2022/04/24 00:55:11;;;;;;;;;;;8.00;79.50;;;;;;6101736;23;19952;-80
2022/04/24 00:57:40;;;;;;;;;;;7.90;79.70;;;;;;6113943;23;19913;-80
2022/04/24 01:00:08;;;;;;;;;;;8.00;79.90;;;;;;6143486;23;19921;-78
2022/04/24 01:02:39;;;;;;;;;;;7.80;80.30;;;;;;6125654;23;19912;-78
2022/04/24 01:05:06;;;;;;;;;;;7.70;80.30;;;;;;6111488;23;19952;-79
2022/04/24 01:07:32;;;;;;;;;;;7.70;80.30;;;;;;6101717;23;19955;-77
2022/04/24 01:10:00;;;;;;;;;;;7.70;80.30;;;;;;6101941;23;19913;-76
2022/04/24 01:12:26;;;;;;;;;;;7.60;80.50;;;;;;6126394;23;19917;-76
2022/04/24 01:14:51;;;;;;;;;;;7.60;80.00;;;;;;6125916;23;20331;-76
2022/04/24 01:17:19;;;;;;;;;;;7.60;80.60;;;;;;6101818;23;20384;-77
2022/04/24 01:19:45;;;;;;;;;;;7.50;80.80;;;;;;6101779;23;19964;-79
2022/04/24 01:22:11;;;;;;;;;;;7.50;80.80;;;;;;6126100;23;19917;-79
2022/04/24 01:24:42;;;;;;;;;;;7.50;80.80;;;;;;6124933;23;19920;-79
2022/04/24 01:27:07;;;;;;;;;;;7.40;80.80;;;;;;6102029;23;20001;-79
2022/04/24 01:29:33;;;;;;;;;;;7.40;80.90;;;;;;6126298;23;20330;-79
2022/04/24 01:32:04;;;;;;;;;;;7.40;80.80;;;;;;6101999;23;19916;-79
2022/04/24 01:34:30;;;;;;;;;;;7.40;80.90;;;;;;6077096;23;19919;-79
2022/04/24 01:36:56;;;;;;;;;;;7.20;81.20;;;;;;6101397;23;20327;-78
2022/04/24 01:39:24;;;;;;;;;;;7.10;81.50;;;;;;6101363;23;19936;-79
2022/04/24 01:41:51;;;;;;;;;;;7.00;81.60;;;;;;6101924;23;19913;-79
2022/04/24 01:44:17;;;;;;;;;;;6.90;82.30;;;;;;6101016;23;19984;-79
2022/04/24 01:46:42;;;;;;;;;;;6.90;82.80;;;;;;6101724;23;19948;-79
2022/04/24 01:49:10;;;;;;;;;;;6.80;83.30;;;;;;6101624;23;19913;-79
2022/04/24 01:51:36;;;;;;;;;;;6.50;83.40;;;;;;6101552;23;19928;-79
2022/04/24 01:54:02;;;;;;;;;;;6.90;83.50;;;;;;6125365;23;19913;-79
2022/04/24 01:56:27;;;;;;;;;;;6.60;83.70;;;;;;6101517;23;19924;-79
2022/04/24 01:58:53;;;;;;;;;;;6.50;84.00;;;;;;6101093;23;20292;-79
2022/04/24 02:01:19;;;;;;;;;;;6.20;84.50;;;;;;6126123;23;20220;-79
2022/04/24 02:03:44;;;;;;;;;;;6.10;85.00;;;;;;6100424;23;19956;-80
2022/04/24 02:06:13;;;;;;;;;;;6.30;85.30;;;;;;6125699;23;19975;-79
2022/04/24 02:08:38;;;;;;;;;;;6.20;86.00;;;;;;6101651;23;19913;-80
2022/04/24 02:11:08;;;;;;;;;;;6.50;86.30;;;;;;6125261;23;20331;-79
2022/04/24 02:13:34;;;;;;;;;;;6.30;86.40;;;;;;6099603;23;20316;-79
2022/04/24 02:16:00;;;;;;;;;;;6.20;86.60;;;;;;6101247;23;19960;-79
2022/04/24 02:18:25;;;;;;;;;;;6.30;86.30;;;;;;6101270;23;20232;-79
2022/04/24 02:20:51;;;;;;;;;;;6.30;86.90;;;;;;6104312;23;20339;-79
2022/04/24 02:23:19;;;;;;;;;;;6.20;87.10;;;;;;6111545;23;19912;-79
2022/04/24 02:25:47;;;;;;;;;;;6.30;87.00;;;;;;6117880;23;19996;-75
2022/04/24 02:28:13;;;;;;;;;;;6.20;87.70;;;;;;6125147;23;19913;-75
2022/04/24 02:30:39;;;;;;;;;;;6.50;87.90;;;;;;6109909;23;19912;-79
2022/04/24 02:33:05;;;;;;;;;;;6.20;87.80;;;;;;6102434;23;19916;-79
2022/04/24 02:35:30;;;;;;;;;;;6.60;87.80;;;;;;6128567;23;19905;-79
2022/04/24 02:37:56;;;;;;;;;;;6.20;87.70;;;;;;6129327;23;19909;-78
2022/04/24 02:40:27;;;;;;;;;;;6.20;87.40;;;;;;6153671;23;19944;-79
2022/04/24 02:42:53;;;;;;;;;;;6.30;87.00;;;;;;6122067;23;20039;-79
2022/04/24 02:45:19;;;;;;;;;;;6.40;87.00;;;;;;6125141;23;19945;-80
2022/04/24 02:47:48;;;;;;;;;;;6.40;86.60;;;;;;6101606;23;19987;-80
2022/04/24 02:50:14;;;;;;;;;;;6.40;87.10;;;;;;6100773;23;19944;-80
2022/04/24 02:52:52;;;;;;;;;;;6.50;86.10;;;;;;6100560;23;19913;-80
2022/04/24 02:55:22;;;;;;;;;;;6.50;86.00;;;;;;6100849;23;19912;-79
2022/04/24 02:57:48;;;;;;;;;;;6.50;85.70;;;;;;6101016;23;19917;-80
2022/04/24 03:00:19;;;;;;;;;;;7.40;86.30;;;;;;6101165;23;19995;-80
2022/04/24 03:02:48;;;;;;;;;;;6.60;86.30;;;;;;6100976;23;19913;-78
2022/04/24 03:05:15;;;;;;;;;;;6.70;85.20;;;;;;6124880;23;20367;-79
2022/04/24 03:07:41;;;;;;;;;;;6.70;84.90;;;;;;6125322;23;19913;-79
2022/04/24 03:10:10;;;;;;;;;;;6.90;85.40;;;;;;6102253;23;19992;-80
2022/04/24 03:12:36;;;;;;;;;;;7.20;85.20;;;;;;6100760;23;19948;-80
2022/04/24 03:15:03;;;;;;;;;;;6.90;85.00;;;;;;6100939;23;19983;-81
2022/04/24 03:17:30;;;;;;;;;;;6.80;85.00;;;;;;6102839;23;19917;-80
2022/04/24 03:19:55;;;;;;;;;;;6.70;85.10;;;;;;6103327;23;19924;-80
2022/04/24 03:22:21;;;;;;;;;;;6.90;85.50;;;;;;6102901;23;19912;-80
2022/04/24 03:24:46;;;;;;;;;;;6.60;86.00;;;;;;6126842;23;19968;-80
2022/04/24 03:27:13;;;;;;;;;;;6.80;86.50;;;;;;6127550;23;19955;-80
2022/04/24 03:29:41;;;;;;;;;;;6.90;86.80;;;;;;6103314;23;19967;-80
2022/04/24 03:32:10;;;;;;;;;;;6.90;86.60;;;;;;6127157;23;19983;-80
2022/04/24 03:34:37;;;;;;;;;;;6.60;86.80;;;;;;6101886;23;19967;-80
2022/04/24 03:37:07;;;;;;;;;;;6.60;86.50;;;;;;6127397;23;19964;-80
2022/04/24 03:39:36;;;;;;;;;;;6.60;86.90;;;;;;6102748;23;19913;-80
2022/04/24 03:42:05;;;;;;;;;;;7.00;87.40;;;;;;6103169;23;19952;-81
2022/04/24 03:44:33;;;;;;;;;;;6.50;87.00;;;;;;6117905;23;19937;-80
2022/04/24 03:46:59;;;;;;;;;;;6.70;87.50;;;;;;6146688;23;19980;-76
2022/04/24 03:49:28;;;;;;;;;;;6.80;87.90;;;;;;6130430;23;20549;-76
2022/04/24 03:51:53;;;;;;;;;;;6.50;88.40;;;;;;6111645;23;19913;-77
2022/04/24 03:54:19;;;;;;;;;;;6.40;88.60;;;;;;6101745;23;19916;-77
2022/04/24 03:56:45;;;;;;;;;;;6.50;88.70;;;;;;6102309;23;19923;-77
2022/04/24 03:59:11;;;;;;;;;;;6.50;88.40;;;;;;6126251;23;19913;-78
2022/04/24 04:01:39;;;;;;;;;;;6.50;89.30;;;;;;6102671;23;19919;-77
2022/04/24 04:04:04;;;;;;;;;;;6.50;89.70;;;;;;6101627;23;19920;-78
2022/04/24 04:06:36;;;;;;;;;;;6.50;90.10;;;;;;6102141;23;19913;-78
2022/04/24 04:09:04;;;;;;;;;;;6.50;89.70;;;;;;6102738;23;19913;-77
2022/04/24 04:11:30;;;;;;;;;;;7.20;90.10;;;;;;6126586;23;19928;-80
2022/04/24 04:13:56;;;;;;;;;;;6.60;90.20;;;;;;6126482;23;19943;-80
2022/04/24 04:16:24;;;;;;;;;;;6.90;89.90;;;;;;6102195;23;20312;-80
2022/04/24 04:18:49;;;;;;;;;;;6.80;89.90;;;;;;6102559;23;19988;-80
2022/04/24 04:21:15;;;;;;;;;;;7.20;89.60;;;;;;6102119;23;19952;-80
2022/04/24 04:23:41;;;;;;;;;;;7.30;88.70;;;;;;6126904;23;20408;-80
2022/04/24 04:26:06;;;;;;;;;;;6.90;88.00;;;;;;6126479;23;19913;-80
2022/04/24 04:28:32;;;;;;;;;;;7.00;87.20;;;;;;6126973;23;19920;-80
2022/04/24 04:30:58;;;;;;;;;;;7.10;86.50;;;;;;6102358;23;19913;-80
2022/04/24 04:33:24;;;;;;;;;;;7.10;85.40;;;;;;6102495;23;19924;-80
2022/04/24 04:35:49;;;;;;;;;;;7.20;84.90;;;;;;6101641;23;19944;-80
2022/04/24 04:38:15;;;;;;;;;;;7.30;84.20;;;;;;6102208;23;19917;-80
2022/04/24 04:40:43;;;;;;;;;;;7.50;83.80;;;;;;6126947;23;19920;-80
2022/04/24 04:43:09;;;;;;;;;;;7.60;83.80;;;;;;6126703;23;19971;-80
2022/04/24 04:45:34;;;;;;;;;;;7.40;83.40;;;;;;6126248;23;19912;-81
2022/04/24 04:48:02;;;;;;;;;;;7.80;83.60;;;;;;6102318;23;19913;-80
2022/04/24 04:50:28;;;;;;;;;;;7.40;83.80;;;;;;6102062;23;19913;-80
2022/04/24 04:52:54;;;;;;;;;;;7.40;84.10;;;;;;6125952;23;19916;-80
2022/04/24 04:55:19;;;;;;;;;;;7.70;84.70;;;;;;6101470;23;19913;-80
2022/04/24 04:57:47;;;;;;;;;;;7.40;84.90;;;;;;6104107;23;19928;-80
2022/04/24 05:00:16;;;;;;;;;;;7.60;85.70;;;;;;6116463;23;19944;-80
2022/04/24 05:02:42;;;;;;;;;;;7.50;85.70;;;;;;6149080;23;19928;-76
2022/04/24 05:05:08;;;;;;;;;;;7.60;86.10;;;;;;6151169;23;19905;-80
2022/04/24 05:07:34;;;;;;;;;;;7.50;86.80;;;;;;6102350;23;19917;-80
2022/04/24 05:10:00;;;;;;;;;;;7.50;87.10;;;;;;6102444;23;19912;-80
2022/04/24 05:12:27;;;;;;;;;;;7.50;87.20;;;;;;6101882;23;20365;-81
2022/04/24 05:14:53;;;;;;;;;;;7.80;87.60;;;;;;6101662;23;19923;-80
2022/04/24 05:17:18;;;;;;;;;;;7.60;87.00;;;;;;6101504;23;19916;-80
2022/04/24 05:19:50;;;;;;;;;;;7.50;87.00;;;;;;6101687;23;19913;-80
2022/04/24 05:22:16;;;;;;;;;;;7.70;86.10;;;;;;6101410;23;20247;-80
2022/04/24 05:24:41;;;;;;;;;;;7.80;86.10;;;;;;6101415;23;19948;-80
2022/04/24 05:27:07;;;;;;;;;;;7.80;85.10;;;;;;6101661;23;19913;-80
2022/04/24 05:29:33;;;;;;;;;;;7.90;84.50;;;;;;6101930;23;19948;-80
2022/04/24 05:31:58;;;;;;;;;;;7.90;84.30;;;;;;6101472;23;20275;-80
2022/04/24 05:34:26;;;;;;;;;;;8.00;83.90;;;;;;6101061;23;19920;-77
2022/04/24 05:36:52;;;;;;;;;;;8.10;83.00;;;;;;6150299;23;19919;-77
2022/04/24 05:39:26;;;;;;;;;;;8.20;83.00;;;;;;6125948;23;19920;-77
2022/04/24 05:41:51;;;;;;;;;;;8.30;82.30;;;;;;6098331;23;19964;-77
2022/04/24 05:44:19;;;;;;;;;;;8.50;82.00;;;;;;6125950;23;20401;-77
2022/04/24 05:46:45;;;;;;;;;;;8.90;82.30;;;;;;6101446;23;19920;-79
2022/04/24 05:49:10;;;;;;;;;;;8.70;81.60;;;;;;6101018;23;19913;-79
2022/04/24 05:51:36;;;;;;;;;;;8.70;80.80;;;;;;6101431;23;19919;-79
2022/04/24 05:54:02;;;;;;;;;;;8.90;80.80;;;;;;6125948;23;20009;-79
2022/04/24 05:56:28;;;;;;;;;;;9.00;80.40;;;;;;6104980;23;19913;-79
2022/04/24 05:58:56;;;;;;;;;;;9.20;80.20;;;;;;6107029;23;19920;-79
2022/04/24 06:01:22;;;;;;;;;;;9.30;79.80;;;;;;6106075;23;20204;-79
2022/04/24 06:03:48;;;;;;;;;;;9.50;78.20;;;;;;6130620;23;19919;-79
2022/04/24 06:06:17;;;;;;;;;;;9.40;77.50;;;;;;6130546;23;19943;-79
2022/04/24 06:08:43;;;;;;;;;;;9.60;77.90;;;;;;6105938;23;19918;-79
2022/04/24 06:11:18;;;;;;;;;;;9.60;77.80;;;;;;6108598;23;19951;-79
2022/04/24 06:13:47;;;;;;;;;;;9.60;77.00;;;;;;6121293;23;19916;-80
2022/04/24 06:16:13;;;;;;;;;;;9.70;76.20;;;;;;6153989;23;19911;-77
2022/04/24 06:18:41;;;;;;;;;;;9.70;75.80;;;;;;6132914;23;19912;-77
2022/04/24 06:21:09;;;;;;;;;;;9.70;74.60;;;;;;6131031;23;19912;-79
2022/04/24 06:23:35;;;;;;;;;;;9.80;74.80;;;;;;6130962;23;20232;-79
2022/04/24 06:26:06;;;;;;;;;;;10.00;74.40;;;;;;6106800;23;19913;-79
2022/04/24 06:28:32;;;;;;;;;;;10.10;75.20;;;;;;6105807;23;19920;-80
2022/04/24 06:31:17;;;;;;;;;;;10.00;75.00;;;;;;6135325;23;19912;-79
2022/04/24 06:33:49;;;;;;;;;;;10.10;75.00;;;;;;6128646;23;19921;-79
2022/04/24 06:36:17;;;;;;;;;;;10.40;73.50;;;;;;6106525;23;19912;-79
2022/04/24 06:38:46;;;;;;;;;;;10.40;74.20;;;;;;6129736;23;20390;-80
2022/04/24 06:41:15;;;;;;;;;;;10.60;73.20;;;;;;6105363;23;19918;-79
2022/04/24 06:43:45;;;;;;;;;;;10.70;71.30;;;;;;6130205;23;19913;-79
2022/04/24 06:46:14;;;;;;;;;;;10.60;70.40;;;;;;6130668;23;19916;-80
2022/04/24 06:48:39;;;;;;;;;;;10.70;70.20;;;;;;6130335;23;19913;-80
2022/04/24 06:51:08;;;;;;;;;;;10.70;69.30;;;;;;6130845;23;19959;-80
2022/04/24 06:53:38;;;;;;;;;;;10.80;68.70;;;;;;6116316;23;19917;-79
2022/04/24 06:56:11;;;;;;;;;;;10.90;68.80;;;;;;6157669;23;19905;-77
2022/04/24 06:59:05;;;;;;;;;;;10.90;67.80;;;;;;6158370;23;19904;-76
2022/04/24 07:12:33;;;;;;;;;;;11.30;64.30;;;;;;6154450;23;19908;-74
2022/04/24 07:15:29;;;;;;;;;;;11.50;64.70;;;;;;6123605;23;19976;-75
2022/04/24 07:17:58;;;;;;;;;;;11.60;63.70;;;;;;6075657;23;19933;-77
2022/04/24 07:24:24;;;;;;;;;;;11.70;65.50;;;;;;6064973;23;19948;-73
2022/04/24 07:27:19;;;;;;;;;;;11.80;62.80;;;;;;6042087;23;19918;-73
2022/04/24 07:30:17;;;;;;;;;;;11.80;63.10;;;;;;6122383;23;20304;-73
2022/04/24 07:32:46;;;;;;;;;;;12.00;64.60;;;;;;6074538;23;19913;-74
2022/04/24 07:35:12;;;;;;;;;;;12.10;64.30;;;;;;6100100;23;19913;-74
2022/04/24 07:37:43;;;;;;;;;;;12.20;63.70;;;;;;6123668;23;19917;-74
2022/04/24 07:40:12;;;;;;;;;;;12.30;62.80;;;;;;6123452;23;19917;-74
2022/04/24 07:42:43;;;;;;;;;;;12.30;62.00;;;;;;6123334;23;19932;-74
2022/04/24 07:45:09;;;;;;;;;;;12.30;61.40;;;;;;6127308;23;20379;-74
2022/04/24 07:47:34;;;;;;;;;;;12.50;60.80;;;;;;6129260;23;19916;-75
2022/04/24 07:50:00;;;;;;;;;;;12.60;60.10;;;;;;6129891;23;19921;-74
2022/04/24 07:52:26;;;;;;;;;;;12.40;59.10;;;;;;6129597;23;19927;-75
2022/04/24 07:54:51;;;;;;;;;;;12.40;59.60;;;;;;6130185;23;19917;-75
2022/04/24 07:57:21;;;;;;;;;;;12.60;59.50;;;;;;6105617;23;19917;-76
2022/04/24 07:59:46;;;;;;;;;;;12.70;60.50;;;;;;6154759;23;20326;-73
2022/04/24 08:02:12;;;;;;;;;;;13.00;59.10;;;;;;6131558;23;19917;-75
2022/04/24 08:04:38;;;;;;;;;;;13.10;58.20;;;;;;6107646;23;19999;-77
2022/04/24 08:07:04;;;;;;;;;;;13.20;56.70;;;;;;6131821;23;19944;-74
2022/04/24 08:09:30;;;;;;;;;;;13.20;57.30;;;;;;6131645;23;19912;-74
2022/04/24 08:12:03;;;;;;;;;;;13.20;55.30;;;;;;6131513;23;19951;-79
2022/04/24 08:14:29;;;;;;;;;;;13.30;57.50;;;;;;6131160;23;19975;-79
2022/04/24 08:16:55;;;;;;;;;;;13.50;58.80;;;;;;6107574;23;20441;-76
2022/04/24 08:19:23;;;;;;;;;;;13.60;56.10;;;;;;6131643;23;19916;-78
2022/04/24 08:21:49;;;;;;;;;;;13.70;56.20;;;;;;6107055;23;19916;-78
2022/04/24 08:24:14;;;;;;;;;;;13.60;56.70;;;;;;6131715;23;19916;-70
2022/04/24 08:26:40;;;;;;;;;;;13.70;57.60;;;;;;6131343;23;19916;-71
2022/04/24 08:29:06;;;;;;;;;;;13.80;59.30;;;;;;6128153;23;19920;-71
2022/04/24 08:31:56;;;;;;;;;;;14.00;58.70;;;;;;6154130;23;19917;-76
2022/04/24 08:35:08;;;;;;;;;;;13.80;58.10;;;;;;6132943;23;19916;-78
2022/04/24 08:38:06;;;;;;;;;;;13.70;58.40;;;;;;6073125;23;19964;-78
2022/04/24 08:40:32;;;;;;;;;;;13.80;57.00;;;;;;6105928;23;19971;-78
2022/04/24 08:42:57;;;;;;;;;;;13.70;57.30;;;;;;6130880;23;19917;-79
2022/04/24 08:48:47;;;;;;;;;;;13.90;56.70;;;;;;6156470;23;19911;-78
2022/04/24 08:51:13;;;;;;;;;;;14.00;57.10;;;;;;6113057;23;20255;-79
2022/04/24 08:53:39;;;;;;;;;;;14.10;57.70;;;;;;6145429;23;19924;-77
2022/04/24 08:56:05;;;;;;;;;;;14.10;57.40;;;;;;6140288;23;19919;-73
2022/04/24 08:58:31;;;;;;;;;;;14.20;57.90;;;;;;6138523;23;19948;-73
2022/04/24 09:00:57;;;;;;;;;;;14.20;58.60;;;;;;6132983;23;19991;-77
2022/04/24 09:03:22;;;;;;;;;;;14.40;57.30;;;;;;6130207;23;19959;-78
2022/04/24 09:05:51;;;;;;;;;;;14.30;56.50;;;;;;6154710;23;19916;-76
2022/04/24 09:08:16;;;;;;;;;;;14.50;61.00;;;;;;6128897;23;19920;-76
2022/04/24 09:10:52;;;;;;;;;;;14.50;59.60;;;;;;6128910;23;19912;-78
2022/04/24 09:14:14;;;;;;;;;;;14.70;61.10;;;;;;6155775;23;19992;-76
2022/04/24 09:16:24;;;;;;;;;;;14.50;60.70;;;;;;6129291;23;19920;-77
2022/04/24 09:18:49;;;;;;;;;;;14.60;60.80;;;;;;6105742;23;19912;-77
2022/04/24 09:21:15;;;;;;;;;;;14.60;62.40;;;;;;6130475;23;19923;-77
2022/04/24 09:23:44;;;;;;;;;;;14.80;59.60;;;;;;6131402;23;19971;-77
2022/04/24 09:26:18;;;;;;;;;;;14.50;60.60;;;;;;6106527;23;19916;-77
2022/04/24 09:28:44;;;;;;;;;;;14.50;59.80;;;;;;6131129;23;19917;-77
2022/04/24 09:31:10;;;;;;;;;;;14.50;59.40;;;;;;6130326;23;19924;-75
2022/04/24 09:33:36;;;;;;;;;;;14.30;59.50;;;;;;6130542;23;19927;-77
2022/04/24 09:36:06;;;;;;;;;;;14.00;57.80;;;;;;6131067;23;20216;-78
2022/04/24 09:38:38;;;;;;;;;;;14.30;59.90;;;;;;6131209;23;19917;-77
2022/04/24 09:41:03;;;;;;;;;;;14.10;59.80;;;;;;6106945;23;19917;-77
2022/04/24 09:43:40;;;;;;;;;;;14.40;58.30;;;;;;6106649;23;19924;-81
2022/04/24 09:46:26;;;;;;;;;;;14.60;58.20;;;;;;6157500;23;19927;-77
2022/04/24 09:48:58;;;;;;;;;;;14.50;59.90;;;;;;6105587;23;20365;-77
2022/04/24 09:51:43;;;;;;;;;;;14.30;58.10;;;;;;6130281;23;19912;-79
2022/04/24 09:54:12;;;;;;;;;;;14.20;59.00;;;;;;6106742;23;20274;-75
2022/04/24 09:56:38;;;;;;;;;;;14.40;60.00;;;;;;6106005;23;19995;-74
2022/04/24 09:59:05;;;;;;;;;;;14.50;57.90;;;;;;6106675;23;20250;-74
2022/04/24 10:01:32;;;;;;;;;;;14.30;57.40;;;;;;6105830;23;19912;-76
2022/04/24 10:03:58;;;;;;;;;;;14.10;58.20;;;;;;6106326;23;19970;-75
2022/04/24 10:06:24;;;;;;;;;;;14.10;59.40;;;;;;6130746;23;19916;-76
2022/04/24 10:08:50;;;;;;;;;;;14.20;60.90;;;;;;6130605;23;19995;-78
2022/04/24 10:11:19;;;;;;;;;;;14.10;57.80;;;;;;6106323;23;19921;-76
2022/04/24 10:13:46;;;;;;;;;;;14.20;58.60;;;;;;6106479;23;19979;-77
2022/04/24 10:16:15;;;;;;;;;;;14.30;58.10;;;;;;6129903;23;19917;-76
2022/04/24 10:18:47;;;;;;;;;;;14.20;58.20;;;;;;6106359;23;19917;-75
2022/04/24 10:21:25;;;;;;;;;;;14.30;58.70;;;;;;6156760;23;19967;-77
2022/04/24 10:23:50;;;;;;;;;;;14.30;56.90;;;;;;6117503;23;19917;-74
2022/04/24 10:26:20;;;;;;;;;;;14.30;57.80;;;;;;6119756;23;19919;-75
2022/04/24 10:28:47;;;;;;;;;;;14.50;57.50;;;;;;6162012;23;19917;-78
2022/04/24 10:31:16;;;;;;;;;;;14.50;60.80;;;;;;6105426;23;19912;-78
2022/04/24 10:33:52;;;;;;;;;;;14.60;61.60;;;;;;6105768;23;19995;-75
2022/04/24 10:36:20;;;;;;;;;;;14.70;60.20;;;;;;6106268;23;20342;-76
2022/04/24 10:38:46;;;;;;;;;;;14.70;61.90;;;;;;6106029;23;20286;-76
2022/04/24 10:41:16;;;;;;;;;;;14.50;61.40;;;;;;6105082;23;19948;-76
2022/04/24 10:43:49;;;;;;;;;;;14.20;59.10;;;;;;6105674;23;19917;-77
2022/04/24 10:46:25;;;;;;;;;;;14.20;60.70;;;;;;6130071;23;19991;-76
2022/04/24 10:48:50;;;;;;;;;;;14.20;60.30;;;;;;6129888;23;19920;-76
2022/04/24 10:51:29;;;;;;;;;;;14.10;60.50;;;;;;6129584;23;20339;-76
2022/04/24 10:53:56;;;;;;;;;;;14.20;61.60;;;;;;6130681;23;19936;-76
2022/04/24 10:56:21;;;;;;;;;;;14.30;60.00;;;;;;6105899;23;19912;-77
2022/04/24 10:58:49;;;;;;;;;;;14.40;61.00;;;;;;6105864;23;19939;-77
2022/04/24 11:01:15;;;;;;;;;;;14.20;59.00;;;;;;6130043;23;20320;-78
2022/04/24 11:03:42;;;;;;;;;;;14.00;59.30;;;;;;6106313;23;19912;-77
2022/04/24 11:06:18;;;;;;;;;;;14.30;61.00;;;;;;6130433;23;19995;-76
2022/04/24 11:08:43;;;;;;;;;;;14.40;60.60;;;;;;6105509;23;19983;-76
2022/04/24 11:11:10;;;;;;;;;;;14.70;58.60;;;;;;6155651;23;19920;-77
2022/04/24 11:13:36;;;;;;;;;;;14.60;57.90;;;;;;6130353;23;19960;-77
2022/04/24 11:16:02;;;;;;;;;;;14.50;58.80;;;;;;6105560;23;19912;-75
2022/04/24 11:18:28;;;;;;;;;;;14.50;59.00;;;;;;6105814;23;19983;-76
2022/04/24 11:20:54;;;;;;;;;;;14.60;60.10;;;;;;6129924;23;19919;-75
2022/04/24 11:23:26;;;;;;;;;;;14.50;58.80;;;;;;6105869;23;19912;-76
2022/04/24 11:25:53;;;;;;;;;;;14.30;59.50;;;;;;6130193;23;19940;-76
2022/04/24 11:28:19;;;;;;;;;;;14.40;60.90;;;;;;6156562;23;19916;-76
2022/04/24 11:38:32;;;;;;;;;;;14.40;58.10;;;;;;5895021;23;20088;-77
2022/04/24 11:41:01;;;;;;;;;;;14.50;59.40;;;;;;6015489;23;20049;-74
2022/04/24 11:43:27;;;;;;;;;;;14.30;60.50;;;;;;6016000;23;20317;-76
2022/04/24 11:51:22;;;;;;;;;;;14.20;61.30;;;;;;6138846;23;20280;-75
2022/04/24 11:53:48;;;;;;;;;;;14.00;61.60;;;;;;6138067;23;20047;-74
2022/04/24 11:56:15;;;;;;;;;;;14.20;61.10;;;;;;6112364;23;19913;-74
2022/04/24 11:58:45;;;;;;;;;;;14.20;61.70;;;;;;6152246;23;19964;-78
2022/04/24 12:01:17;;;;;;;;;;;13.90;63.30;;;;;;6135482;23;19908;-77
2022/04/24 12:03:46;;;;;;;;;;;13.80;62.90;;;;;;6160260;23;19905;-76
2022/04/24 12:06:43;;;;;;;;;;;14.00;63.40;;;;;;6137333;23;19916;-75
2022/04/24 12:09:10;;;;;;;;;;;14.10;61.50;;;;;;6108413;23;19917;-76
2022/04/24 12:11:36;;;;;;;;;;;14.10;62.60;;;;;;6132026;23;20332;-76
2022/04/24 12:14:03;;;;;;;;;;;14.00;60.80;;;;;;6107786;23;19913;-74
2022/04/24 12:16:29;;;;;;;;;;;13.80;61.60;;;;;;6107429;23;19920;-75
2022/04/24 12:18:56;;;;;;;;;;;13.90;61.50;;;;;;6132098;23;19913;-75
2022/04/24 12:21:22;;;;;;;;;;;13.80;61.70;;;;;;6107127;23;19919;-77
2022/04/24 12:23:51;;;;;;;;;;;13.70;62.00;;;;;;6156245;23;19913;-74
2022/04/24 12:26:17;;;;;;;;;;;13.60;63.40;;;;;;6131799;23;19967;-77
2022/04/24 12:28:42;;;;;;;;;;;13.70;63.00;;;;;;6107834;23;19912;-77
2022/04/24 12:31:28;;;;;;;;;;;13.40;62.60;;;;;;6107302;23;19955;-76
2022/04/24 12:33:54;;;;;;;;;;;13.80;64.40;;;;;;6106790;23;20320;-76
2022/04/24 12:36:21;;;;;;;;;;;14.00;62.80;;;;;;6131743;23;19917;-78
2022/04/24 12:39:06;;;;;;;;;;;13.80;62.00;;;;;;6157860;23;20239;-77
2022/04/24 12:41:33;;;;;;;;;;;13.40;62.90;;;;;;6131342;23;19940;-76
2022/04/24 12:44:03;;;;;;;;;;;13.60;64.00;;;;;;6107398;23;19959;-75
2022/04/24 12:46:28;;;;;;;;;;;13.70;63.50;;;;;;6131666;23;19928;-77
2022/04/24 12:48:55;;;;;;;;;;;13.90;63.60;;;;;;6107589;23;19917;-76
2022/04/24 12:51:21;;;;;;;;;;;13.90;61.00;;;;;;6131866;23;19916;-75
2022/04/24 12:53:51;;;;;;;;;;;13.90;61.20;;;;;;6132689;23;19962;-78
2022/04/24 12:56:17;;;;;;;;;;;13.80;60.90;;;;;;6131646;23;19923;-76
2022/04/24 12:58:43;;;;;;;;;;;13.90;60.80;;;;;;6125953;23;19989;-78
2022/04/24 13:01:11;;;;;;;;;;;13.70;60.30;;;;;;6102238;23;19917;-76
2022/04/24 13:03:37;;;;;;;;;;;13.50;61.00;;;;;;6102113;23;19919;-77
2022/04/24 13:06:03;;;;;;;;;;;13.70;60.80;;;;;;6126792;23;20348;-76
2022/04/24 13:08:29;;;;;;;;;;;13.70;59.60;;;;;;6126359;23;19955;-77
2022/04/24 13:10:57;;;;;;;;;;;13.80;59.90;;;;;;6126296;23;19913;-77
2022/04/24 13:13:23;;;;;;;;;;;13.80;59.60;;;;;;6099650;23;19912;-77
2022/04/24 13:18:39;;;;;;;;;;;13.60;60.20;;;;;;6126479;23;20332;-80
2022/04/24 13:24:46;;;;;;;;;;;13.70;60.70;;;;;;6038266;23;19916;-69
2022/04/24 13:27:14;;;;;;;;;;;13.80;60.70;;;;;;6035793;23;19914;-68
2022/04/24 13:29:56;;;;;;;;;;;14.00;59.80;;;;;;6077821;23;20320;-69
2022/04/24 13:32:51;;;;;;;;;;;14.10;60.40;;;;;;6126586;23;19913;-70
2022/04/24 13:35:58;;;;;;;;;;;14.10;59.60;;;;;;6124756;23;19924;-77
2022/04/24 13:38:57;;;;;;;;;;;14.00;58.80;;;;;;6070498;23;19939;-69
2022/04/24 13:45:10;;;;;;;;;;;14.20;58.20;;;;;;6007351;23;19921;-71
2022/04/24 13:47:35;;;;;;;;;;;13.90;59.70;;;;;;5960830;23;20333;-69
2022/04/24 13:50:01;;;;;;;;;;;13.80;58.80;;;;;;5984148;23;19914;-70
2022/04/24 13:52:35;;;;;;;;;;;13.80;59.20;;;;;;5988174;23;20058;-75
2022/04/24 13:55:22;;;;;;;;;;;13.90;59.30;;;;;;5950989;23;20298;-70
2022/04/24 13:57:48;;;;;;;;;;;14.10;59.10;;;;;;5984375;23;19977;-69
2022/04/24 14:00:23;;;;;;;;;;;14.30;58.70;;;;;;6007525;23;19950;-72
2022/04/24 14:03:02;;;;;;;;;;;14.30;58.20;;;;;;5984428;23;19978;-70
2022/04/24 14:05:28;;;;;;;;;;;14.30;57.90;;;;;;6008166;23;19923;-70
2022/04/24 14:07:54;;;;;;;;;;;14.20;58.30;;;;;;6055007;23;19914;-69
2022/04/24 14:10:19;;;;;;;;;;;14.20;60.20;;;;;;6069290;23;20400;-70
2022/04/24 14:12:46;;;;;;;;;;;14.00;61.10;;;;;;6069661;23;19921;-71
2022/04/24 14:15:12;;;;;;;;;;;14.10;61.20;;;;;;6069103;23;20017;-70
2022/04/24 14:17:37;;;;;;;;;;;14.20;61.80;;;;;;6069566;23;19927;-71
2022/04/24 14:20:04;;;;;;;;;;;14.20;61.20;;;;;;6069300;23;19953;-69
2022/04/24 14:22:38;;;;;;;;;;;14.10;62.20;;;;;;6093248;23;19918;-73
2022/04/24 14:25:04;;;;;;;;;;;14.20;60.30;;;;;;6048143;23;19917;-71
2022/04/24 14:27:33;;;;;;;;;;;14.20;63.30;;;;;;6076486;23;19916;-70
2022/04/24 14:30:14;;;;;;;;;;;14.30;61.60;;;;;;6100613;23;19917;-73
2022/04/24 14:36:00;;;;;;;;;;;14.10;62.00;;;;;;6077169;23;20348;-73
2022/04/24 14:38:26;;;;;;;;;;;14.20;61.80;;;;;;6124837;23;19967;-71
2022/04/24 14:44:08;;;;;;;;;;;14.50;61.40;;;;;;6070373;23;19920;-72
2022/04/24 14:58:18;;;;;;;;;;;14.50;60.70;;;;;;6140571;23;19913;-71
2022/04/24 15:04:23;;;;;;;;;;;14.60;59.40;;;;;;6148279;23;20334;-70
2022/04/24 15:10:11;;;;;;;;;;;14.80;58.60;;;;;;6155431;23;19912;-72
2022/04/24 15:13:21;;;;;;;;;;;15.00;57.00;;;;;;6130987;23;19913;-72
2022/04/24 15:15:58;;;;;;;;;;;15.10;56.90;;;;;;6037060;23;19923;-72
2022/04/24 15:18:39;;;;;;;;;;;15.30;57.30;;;;;;6106259;23;19983;-72
2022/04/24 15:21:05;;;;;;;;;;;15.70;56.90;;;;;;6130644;23;19913;-72
2022/04/24 15:23:49;;;;;;;;;;;15.60;55.90;;;;;;6109583;23;19927;-73
2022/04/24 15:29:46;;;;;;;;;;;15.30;55.90;;;;;;6064545;23;19960;-71
2022/04/24 15:33:14;;;;;;;;;;;16.00;54.60;;;;;;6023029;23;20415;-72
2022/04/24 15:36:18;;;;;;;;;;;15.70;54.20;;;;;;6038236;23;20251;-70
2022/04/24 15:42:53;;;;;;;;;;;15.80;53.40;;;;;;5939782;24;19919;-72
2022/04/24 15:45:24;;;;;;;;;;;15.80;53.70;;;;;;5934352;24;20031;-72
2022/04/24 15:54:52;;;;;;;;;;;15.90;53.60;;;;;;5980892;23;20027;-74
2022/04/24 16:14:30;;;;;;;;;;;14.00;58.70;;;;;;5980694;23;20385;-76
2022/04/24 16:16:56;;;;;;;;;;;13.30;60.80;;;;;;5957742;24;19927;-73